Catàleg de serveis del Meteocat
Campanya meteocatpedra

Dades de l'estació automàtica Os de Balaguer - el Monestir d'Avellanes

?
?
Resum diari 22:30 TU
Dades diàries de l'estació meteorològica
Temperatura mitjana 6.3 °C
Temperatura màxima 11.8 °C 12:05 TU
Temperatura mínima 2.9 °C 1:49 TU
Humitat relativa mitjana 83%
Precipitació acumulada 0.0 mm
Ratxa màxima del vent (6 m) 15.8 km/h - 202º 14:07 TU
Irradiació solar global 8.8 MJ/m2

El tram horari està expressat en Temps Universal (TU). Cal sumar una hora en horari d'hivern i dues en horari d'estiu per passar a l'hora oficial.

Os de Balaguer - el Monestir d'Avellanes

Metadades estació meteorol´gica
Municipi Os de Balaguer
Comarca Noguera
Altitud 576 m
Data alta 07.07.1995
Estat actual Operativa
Dades de període
Període
TU
TM
°C
TX
°C
TN
°C
HRM
%
PPT
mm
VVM (6 m)
km/h
DVM (6 m)
graus
VVX (6 m)
km/h
RS
W/m2
00:00 - 00:30 4.1 4.7 3.5 86 0.0 1.8 239 7.9 0
00:30 - 01:00 3.4 4.3 2.9 90 0.0 2.2 298 4.3 0
01:00 - 01:30 3.7 4.1 3.2 88 0.0 1.8 74 4.3 0
01:30 - 02:00 3.1 3.6 2.9 92 0.0 0.7 253 2.5 0
02:00 - 02:30 3.5 3.7 3.3 90 0.0 2.2 72 4.7 0
02:30 - 03:00 3.5 3.7 3.3 89 0.0 2.5 82 8.3 0
03:00 - 03:30 3.4 3.7 3.1 91 0.0 2.5 70 5.4 0
03:30 - 04:00 3.5 3.7 3.3 92 0.0 1.8 78 5.4 0
04:00 - 04:30 3.3 3.4 3.2 93 0.0 3.2 86 10.1 0
04:30 - 05:00 3.3 3.4 3.2 94 0.0 3.2 69 10.8 0
05:00 - 05:30 3.5 3.5 3.4 93 0.0 1.8 60 6.5 0
05:30 - 06:00 3.4 3.6 3.3 94 0.0 1.1 21 4.7 0
06:00 - 06:30 3.6 3.7 3.5 94 0.0 2.5 67 7.6 5
06:30 - 07:00 3.8 3.8 3.7 94 0.0 2.2 66 5.0 6
07:00 - 07:30 3.9 4.2 3.8 94 0.0 0.7 73 6.1 15
07:30 - 08:00 4.5 5.4 4.2 91 0.0 3.2 40 9.7 68
08:00 - 08:30 5.6 5.7 5.5 86 0.0 2.9 356 9.7 75
08:30 - 09:00 5.6 5.8 5.6 86 0.0 2.9 357 6.5 49
09:00 - 09:30 6.0 6.3 5.8 83 0.0 3.6 349 9.4 65
09:30 - 10:00 6.6 7.1 6.3 81 0.0 4.3 64 11.2 104
10:00 - 10:30 7.7 8.4 7.2 75 0.0 3.6 21 9.4 237
10:30 - 11:00 8.9 10.1 8.4 67 0.0 1.8 242 5.8 332
11:00 - 11:30 10.7 11.1 10.2 62 0.0 4.0 232 10.8 551
11:30 - 12:00 11.2 11.6 10.9 61 0.0 3.6 222 13.3 567
12:00 - 12:30 11.4 11.8 11.0 63 0.0 4.3 221 12.6 526
12:30 - 13:00 11.2 11.4 11.0 68 0.0 5.4 212 15.5 499
13:00 - 13:30 11.3 11.8 11.0 68 0.0 5.4 228 13.7 461
13:30 - 14:00 11.0 11.5 10.4 71 0.0 5.0 229 15.1 365
14:00 - 14:30 11.3 11.6 10.8 70 0.0 4.0 243 15.8 345
14:30 - 15:00 11.4 11.6 11.2 69 0.0 4.7 251 14.4 269
15:00 - 15:30 10.5 11.1 10.2 73 0.0 4.3 253 13.3 191
15:30 - 16:00 10.0 10.3 9.7 76 0.0 4.0 269 11.5 110
16:00 - 16:30 8.8 9.6 8.0 82 0.0 2.9 273 7.6 36
16:30 - 17:00 7.2 7.9 6.8 90 0.0 2.2 146 5.8 5
17:00 - 17:30 6.5 6.8 6.2 93 0.0 2.2 249 5.4 2
17:30 - 18:00 5.7 6.1 5.3 95 0.0 1.8 359 6.1 3
18:00 - 18:30 5.7 6.0 5.4 97 0.0 3.2 79 6.5 3
18:30 - 19:00 6.0 6.4 5.2 98 0.0 2.2 235 7.2 3
19:00 - 19:30 5.2 5.5 4.9 98 0.0 2.2 315 13.7 3
19:30 - 20:00 5.1 5.8 4.8 90 0.0 5.0 335 13.3 2
20:00 - 20:30 5.7 5.9 5.3 78 0.0 5.0 330 11.2 1
20:30 - 21:00 6.0 6.8 5.4 71 0.0 5.8 330 11.5 1
21:00 - 21:30 7.1 7.3 6.7 61 0.0 4.0 323 9.7 3
21:30 - 22:00 5.8 6.8 4.9 73 0.0 2.5 197 7.9 3
22:00 - 22:30 5.0 5.3 4.7 89 0.0 2.2 103 7.6 4
22:30 - 23:00 4.1 4.7 3.8 92 0.0 1.8 50 5.0 3

Les dades en taronja només han passat un control de qualitat automàtic. Resta pendent la seva validació definitiva.